createdAt,value
2019-05-16T00:00:49.583Z,0.00
2019-05-16T00:01:48.982Z,0.00
2019-05-16T00:02:48.974Z,0.00
2019-05-16T00:03:49.160Z,0.00
2019-05-16T00:04:48.943Z,0.00
2019-05-16T00:05:54.144Z,0.00
2019-05-16T00:06:49.919Z,0.00
2019-05-16T00:07:49.296Z,0.00
2019-05-16T00:08:48.899Z,0.00
2019-05-16T00:09:48.889Z,0.00
2019-05-16T00:10:48.874Z,0.00
2019-05-16T00:11:48.919Z,0.00
2019-05-16T00:12:48.866Z,0.00
2019-05-16T00:13:49.078Z,0.00
2019-05-16T00:14:49.089Z,0.00
2019-05-16T00:15:48.824Z,0.00
2019-05-16T00:16:48.807Z,0.00
2019-05-16T00:17:49.078Z,0.00
2019-05-16T00:18:48.786Z,0.00
2019-05-16T00:19:48.772Z,0.00
2019-05-16T00:20:49.235Z,0.00
2019-05-16T00:21:48.888Z,0.00
2019-05-16T00:22:48.750Z,0.00
2019-05-16T00:23:48.824Z,0.00
2019-05-16T00:24:48.866Z,0.00
2019-05-16T00:25:48.707Z,0.00
2019-05-16T00:26:48.725Z,0.00
2019-05-16T00:27:48.691Z,0.00
2019-05-16T00:28:48.724Z,0.00
2019-05-16T00:29:48.874Z,0.00
2019-05-16T00:30:48.856Z,0.00
2019-05-16T00:31:48.761Z,0.00
2019-05-16T00:32:48.635Z,0.00
2019-05-16T00:33:48.878Z,0.00
2019-05-16T00:34:48.602Z,0.00
2019-05-16T00:36:01.064Z,0.00
2019-05-16T00:36:49.582Z,0.00
2019-05-16T00:37:48.670Z,0.00
2019-05-16T00:38:48.691Z,0.00
2019-05-16T00:39:48.552Z,0.00
2019-05-16T00:40:48.794Z,0.00
2019-05-16T00:41:48.523Z,0.00
2019-05-16T00:42:49.312Z,0.00
2019-05-16T00:43:48.772Z,0.00
2019-05-16T00:44:48.489Z,0.00
2019-05-16T00:45:48.769Z,0.00
2019-05-16T00:46:48.687Z,0.00
2019-05-16T00:47:48.464Z,0.00
2019-05-16T00:48:48.756Z,0.00
2019-05-16T00:49:48.433Z,0.00
2019-05-16T00:50:48.423Z,0.00
2019-05-16T00:51:48.414Z,0.00
2019-05-16T00:52:48.917Z,0.00
2019-05-16T00:53:48.497Z,0.00
2019-05-16T00:54:48.692Z,0.00
2019-05-16T00:55:48.364Z,0.00
2019-05-16T00:56:48.773Z,0.00
2019-05-16T00:57:48.392Z,0.00
2019-05-16T00:58:48.535Z,0.00
2019-05-16T00:59:48.593Z,0.00
2019-05-16T01:00:49.943Z,0.00
2019-05-16T01:01:50.032Z,0.00
2019-05-16T01:02:48.686Z,0.00
2019-05-16T01:03:48.495Z,0.00
2019-05-16T01:04:48.733Z,0.00
2019-05-16T01:05:48.287Z,0.00
2019-05-16T01:06:48.501Z,0.00
2019-05-16T01:07:48.270Z,0.00
2019-05-16T01:08:48.910Z,0.00
2019-05-16T01:09:48.787Z,0.00
2019-05-16T01:10:51.344Z,0.00
2019-05-16T01:11:48.623Z,0.00
2019-05-16T01:12:48.217Z,0.00
2019-05-16T01:13:48.723Z,0.00
2019-05-16T01:14:48.149Z,0.00
2019-05-16T01:15:48.575Z,0.00
2019-05-16T01:16:48.792Z,0.00
2019-05-16T01:17:48.484Z,0.00
2019-05-16T01:18:48.755Z,0.00
2019-05-16T01:19:48.511Z,0.00
2019-05-16T01:20:48.361Z,0.00
2019-05-16T01:21:48.426Z,0.00
2019-05-16T01:22:49.000Z,0.00
2019-05-16T01:23:48.316Z,0.00
2019-05-16T01:24:49.242Z,0.00
2019-05-16T01:25:48.566Z,0.00
2019-05-16T01:26:48.460Z,0.00
2019-05-16T01:27:48.000Z,0.00
2019-05-16T01:28:48.488Z,0.00
2019-05-16T01:29:47.978Z,0.00
2019-05-16T01:30:48.788Z,0.00
2019-05-16T01:31:48.360Z,0.00
2019-05-16T01:32:49.203Z,0.00
2019-05-16T01:33:47.955Z,0.00
2019-05-16T01:34:48.382Z,0.00
2019-05-16T01:35:47.911Z,0.00
2019-05-16T01:36:48.594Z,0.00
2019-05-16T01:37:48.748Z,0.00
2019-05-16T01:38:48.206Z,0.00
2019-05-16T01:39:48.389Z,0.00
2019-05-16T01:40:49.091Z,0.00
2019-05-16T01:41:48.137Z,0.00
2019-05-16T01:42:48.955Z,0.00
2019-05-16T01:43:48.372Z,0.00
2019-05-16T01:44:48.680Z,0.00
2019-05-16T01:45:48.646Z,0.00
2019-05-16T01:46:48.133Z,0.00
2019-05-16T01:47:48.341Z,0.00
2019-05-16T01:48:48.501Z,0.00
2019-05-16T01:49:48.729Z,0.00
2019-05-16T01:50:48.229Z,0.00
2019-05-16T01:51:48.429Z,0.00
2019-05-16T01:52:48.766Z,0.00
2019-05-16T01:53:48.793Z,0.00
2019-05-16T01:54:48.178Z,0.00
2019-05-16T01:55:48.809Z,0.00
2019-05-16T01:56:48.087Z,0.00
2019-05-16T01:57:48.206Z,0.00
2019-05-16T01:58:49.041Z,0.00
2019-05-16T01:59:48.571Z,0.00
2019-05-16T02:00:58.131Z,0.00
2019-05-16T02:01:48.615Z,0.00
2019-05-16T02:02:48.745Z,0.00
2019-05-16T02:03:48.167Z,0.00
2019-05-16T02:04:48.537Z,0.00
2019-05-16T02:05:48.104Z,0.00
2019-05-16T02:06:53.722Z,0.00
2019-05-16T02:07:48.559Z,0.00
2019-05-16T02:08:48.671Z,0.00
2019-05-16T02:09:47.758Z,0.00
2019-05-16T02:10:48.062Z,0.00
2019-05-16T02:11:48.124Z,0.00
2019-05-16T02:12:49.007Z,0.00
2019-05-16T02:13:48.528Z,0.00
2019-05-16T02:14:48.114Z,0.00
2019-05-16T02:15:48.853Z,0.00
2019-05-16T02:16:47.793Z,0.00
2019-05-16T06:24:30.538Z,191.25
2019-05-16T06:25:31.465Z,180.00
2019-05-16T06:26:30.371Z,174.38
2019-05-16T06:27:30.364Z,185.62
2019-05-16T06:28:30.759Z,168.75
2019-05-16T06:29:30.982Z,185.62
2019-05-16T06:30:30.578Z,180.00
2019-05-16T06:31:31.332Z,191.25
2019-05-16T06:32:30.434Z,202.50
2019-05-16T06:33:30.545Z,163.12
2019-05-16T06:34:30.295Z,163.12
2019-05-16T06:35:30.063Z,129.38
2019-05-16T06:36:30.578Z,151.88
2019-05-16T06:37:30.926Z,151.88
2019-05-16T06:38:30.107Z,129.38
2019-05-16T06:39:41.277Z,112.50
2019-05-16T06:40:30.788Z,95.62
2019-05-16T06:41:30.448Z,90.00
2019-05-16T06:42:30.090Z,84.38
2019-05-16T06:43:30.232Z,78.75
2019-05-16T06:44:30.847Z,78.75
2019-05-16T06:45:31.982Z,78.75
2019-05-16T06:46:30.692Z,73.12
2019-05-16T06:47:30.520Z,73.12
2019-05-16T06:48:30.340Z,73.12
2019-05-16T06:49:30.371Z,78.75
2019-05-16T06:50:29.841Z,78.75
2019-05-16T06:51:30.586Z,84.38
2019-05-16T06:52:30.155Z,84.38
2019-05-16T06:53:29.989Z,84.38
2019-05-16T06:54:29.983Z,84.38
2019-05-16T06:55:29.719Z,84.38
2019-05-16T06:56:30.884Z,84.38
2019-05-16T06:57:30.212Z,78.75
2019-05-16T06:58:30.272Z,78.75
2019-05-16T06:59:29.810Z,78.75
2019-05-16T07:00:30.232Z,84.38
2019-05-16T07:01:29.808Z,84.38
2019-05-16T07:02:33.670Z,101.25
2019-05-16T07:03:30.851Z,84.38
2019-05-16T07:04:30.514Z,84.38
2019-05-16T07:05:29.990Z,106.88
2019-05-16T07:06:48.499Z,163.12
2019-05-16T07:07:30.847Z,208.12
2019-05-16T07:08:30.983Z,163.12
2019-05-16T07:09:30.127Z,196.88
2019-05-16T07:10:30.639Z,343.12
2019-05-16T07:11:30.653Z,691.88
2019-05-16T07:12:33.379Z,984.38
2019-05-16T07:13:30.454Z,1175.62
2019-05-16T07:14:31.312Z,438.75
2019-05-16T07:15:29.837Z,157.50
2019-05-16T07:16:29.990Z,163.12
2019-05-16T07:17:30.659Z,191.25
2019-05-16T07:18:30.943Z,236.25
2019-05-16T07:19:30.176Z,331.88
2019-05-16T07:20:30.161Z,410.62
2019-05-16T07:21:31.251Z,556.88
2019-05-16T07:22:31.232Z,326.25
2019-05-16T07:23:29.863Z,371.25
2019-05-16T07:24:30.536Z,275.62
2019-05-16T07:25:30.083Z,270.00
2019-05-16T07:26:30.971Z,270.00
2019-05-16T07:27:30.921Z,270.00
2019-05-16T07:28:30.055Z,258.75
2019-05-16T07:29:30.853Z,253.12
2019-05-16T07:30:30.297Z,247.50
2019-05-16T07:31:30.051Z,241.88
2019-05-16T07:32:30.255Z,247.50
2019-05-16T07:33:31.163Z,253.12
2019-05-16T07:34:31.191Z,264.38
2019-05-16T07:35:30.781Z,236.25
2019-05-16T07:36:31.338Z,236.25
2019-05-16T07:37:31.448Z,236.25
2019-05-16T07:38:30.966Z,236.25
2019-05-16T07:39:30.740Z,236.25
2019-05-16T07:40:30.852Z,236.25
2019-05-16T07:41:31.079Z,230.62
2019-05-16T07:42:30.774Z,230.62
2019-05-16T07:43:30.852Z,225.00
2019-05-16T07:44:31.054Z,219.38
2019-05-16T07:45:30.880Z,213.75
2019-05-16T07:46:31.349Z,213.75
2019-05-16T07:47:30.967Z,219.38
2019-05-16T07:48:31.598Z,225.00
2019-05-16T07:49:30.466Z,241.88
2019-05-16T07:50:30.023Z,236.25
2019-05-16T07:51:31.064Z,275.62
2019-05-16T07:52:35.496Z,270.00
2019-05-16T07:53:32.967Z,258.75
2019-05-16T07:54:34.034Z,241.88
2019-05-16T07:55:30.856Z,225.00
2019-05-16T07:56:31.029Z,219.38
2019-05-16T07:57:30.643Z,208.12
2019-05-16T07:58:31.327Z,196.88
2019-05-16T07:59:29.935Z,196.88
2019-05-16T08:00:48.468Z,202.50
2019-05-16T08:01:30.654Z,208.12
2019-05-16T08:02:31.129Z,202.50
2019-05-16T08:03:30.339Z,196.88
2019-05-16T08:04:30.361Z,191.25
2019-05-16T08:05:29.910Z,180.00
2019-05-16T08:06:31.091Z,180.00
2019-05-16T08:07:33.176Z,191.25
2019-05-16T08:08:31.474Z,202.50
2019-05-16T08:09:30.625Z,213.75
2019-05-16T08:10:38.096Z,219.38
2019-05-16T08:11:30.413Z,236.25
2019-05-16T08:12:32.819Z,247.50
2019-05-16T08:13:30.858Z,270.00
2019-05-16T08:14:30.432Z,315.00
2019-05-16T08:15:30.414Z,354.38
2019-05-16T08:16:30.627Z,393.75
2019-05-16T08:17:31.294Z,360.00
2019-05-16T08:18:30.259Z,365.62
2019-05-16T08:19:30.561Z,348.75
2019-05-16T08:20:31.239Z,331.88
2019-05-16T08:21:30.847Z,298.12
2019-05-16T08:22:30.628Z,275.62
2019-05-16T08:23:30.553Z,264.38
2019-05-16T08:24:30.968Z,258.75
2019-05-16T08:25:31.230Z,253.12
2019-05-16T08:26:32.368Z,253.12
2019-05-16T08:28:30.850Z,286.88
2019-05-16T08:29:31.616Z,298.12
2019-05-16T08:30:31.609Z,315.00
2019-05-16T08:31:31.702Z,331.88
2019-05-16T08:32:31.243Z,354.38
2019-05-16T08:33:31.198Z,388.12
2019-05-16T08:34:31.966Z,388.12
2019-05-16T08:35:31.453Z,399.38
2019-05-16T08:36:30.729Z,348.75
2019-05-16T08:37:41.351Z,292.50
2019-05-16T08:38:30.892Z,264.38
2019-05-16T08:39:31.042Z,253.12
2019-05-16T08:40:31.339Z,247.50
2019-05-16T08:41:31.273Z,230.62
2019-05-16T08:42:32.143Z,225.00
2019-05-16T08:43:31.298Z,208.12
2019-05-16T08:44:31.664Z,191.25
2019-05-16T08:45:31.361Z,174.38
2019-05-16T08:46:31.923Z,163.12
2019-05-16T08:47:31.860Z,151.88
2019-05-16T08:48:31.438Z,146.25
2019-05-16T08:49:30.702Z,146.25
2019-05-16T08:50:10.797Z,275.62
2019-05-16T08:50:28.335Z,146.25
2019-05-16T08:51:32.805Z,140.62
2019-05-16T08:52:31.504Z,135.00
2019-05-16T08:53:31.411Z,123.75
2019-05-16T08:54:31.644Z,118.12
2019-05-16T08:55:31.164Z,112.50
2019-05-16T08:56:31.463Z,112.50
2019-05-16T08:57:32.529Z,112.50
2019-05-16T08:58:34.363Z,106.88
2019-05-16T08:59:33.577Z,106.88
2019-05-16T09:00:33.117Z,106.88
2019-05-16T09:01:34.477Z,106.88
2019-05-16T09:02:36.279Z,106.88
2019-05-16T09:03:32.068Z,106.88
2019-05-16T09:04:33.319Z,101.25
2019-05-16T09:05:31.467Z,101.25
2019-05-16T09:06:31.662Z,101.25
2019-05-16T09:07:31.598Z,101.25
2019-05-16T09:08:28.144Z,101.25
2019-05-16T09:09:41.663Z,101.25
2019-05-16T09:10:55.757Z,112.50
2019-05-16T09:11:39.131Z,123.75
2019-05-16T09:12:29.092Z,129.38
2019-05-16T09:13:28.100Z,129.38
2019-05-16T09:14:31.885Z,140.62
2019-05-16T09:15:29.055Z,140.62
2019-05-16T09:16:28.058Z,140.62
2019-05-16T09:17:28.044Z,146.25
2019-05-16T09:18:28.980Z,146.25
2019-05-16T09:19:28.011Z,151.88
2019-05-16T09:20:28.262Z,163.12
2019-05-16T09:21:27.997Z,174.38
2019-05-16T09:22:28.359Z,180.00
2019-05-16T09:23:27.971Z,180.00
2019-05-16T09:24:27.981Z,185.62
2019-05-16T09:25:27.948Z,191.25
2019-05-16T09:26:28.028Z,191.25
2019-05-16T09:27:27.927Z,180.00
2019-05-16T09:28:28.466Z,168.75
2019-05-16T09:29:27.899Z,174.38
2019-05-16T09:30:27.921Z,174.38
2019-05-16T09:31:27.881Z,180.00
2019-05-16T09:32:28.154Z,180.00
2019-05-16T09:33:27.861Z,191.25
2019-05-16T09:34:28.444Z,196.88
2019-05-16T09:35:28.146Z,208.12
2019-05-16T09:36:28.297Z,225.00
2019-05-16T09:37:27.818Z,241.88
2019-05-16T09:38:30.381Z,258.75
2019-05-16T09:39:28.105Z,270.00
2019-05-16T09:40:27.989Z,286.88
2019-05-16T09:41:46.270Z,298.12
2019-05-16T09:42:28.766Z,309.38
2019-05-16T09:43:28.287Z,309.38
2019-05-16T09:44:27.734Z,303.75
2019-05-16T09:45:27.721Z,309.38
2019-05-16T09:46:27.731Z,315.00
2019-05-16T09:47:28.392Z,326.25
2019-05-16T09:48:30.538Z,320.62
2019-05-16T09:49:29.306Z,320.62
2019-05-16T09:50:27.664Z,320.62
2019-05-16T09:51:27.654Z,315.00
2019-05-16T09:52:27.650Z,309.38
2019-05-16T09:53:27.978Z,309.38
2019-05-16T09:54:27.618Z,303.75
2019-05-16T09:55:27.607Z,298.12
2019-05-16T09:56:27.594Z,303.75
2019-05-16T09:57:27.940Z,303.75
2019-05-16T09:58:28.096Z,303.75
2019-05-16T09:59:27.567Z,309.38
2019-05-16T10:00:27.549Z,326.25
2019-05-16T10:01:27.774Z,376.88
2019-05-16T10:02:27.615Z,483.75
2019-05-16T10:03:27.520Z,922.50
2019-05-16T10:04:27.506Z,658.12
2019-05-16T10:05:27.506Z,624.38
2019-05-16T10:06:27.744Z,691.88
2019-05-16T10:07:28.464Z,894.38
2019-05-16T10:08:27.465Z,613.12
2019-05-16T10:09:41.162Z,1501.88
2019-05-16T10:10:28.441Z,590.62
2019-05-16T10:11:31.005Z,607.50
2019-05-16T10:12:27.425Z,725.62
2019-05-16T10:13:27.994Z,1248.75
2019-05-16T10:14:27.428Z,736.88
2019-05-16T10:15:27.389Z,838.12
2019-05-16T10:16:27.639Z,720.00
2019-05-16T10:17:27.456Z,849.38
2019-05-16T10:18:27.959Z,843.75
2019-05-16T10:19:27.687Z,928.12
2019-05-16T10:20:27.547Z,1091.25
2019-05-16T10:21:27.380Z,1541.25
2019-05-16T10:22:27.406Z,1260.00
2019-05-16T10:23:28.433Z,1051.88
2019-05-16T10:24:27.286Z,832.50
2019-05-16T10:25:27.878Z,731.25
2019-05-16T10:26:27.933Z,765.00
2019-05-16T10:27:27.290Z,781.88
2019-05-16T10:28:27.814Z,933.75
2019-05-16T10:29:27.623Z,770.62
2019-05-16T10:30:27.220Z,832.50
2019-05-16T10:31:41.607Z,1327.50
2019-05-16T10:32:28.218Z,1788.75
2019-05-16T10:33:27.726Z,2430.00
2019-05-16T10:34:27.175Z,1428.75
2019-05-16T10:35:29.970Z,1018.12
2019-05-16T10:36:28.183Z,2480.62
2019-05-16T10:37:27.168Z,1158.75
2019-05-16T10:38:28.544Z,1288.12
2019-05-16T10:39:27.125Z,1501.88
2019-05-16T10:40:27.500Z,1068.75
2019-05-16T10:41:27.105Z,826.88
2019-05-16T10:42:28.937Z,900.00
2019-05-16T10:43:27.087Z,894.38
2019-05-16T10:44:28.052Z,697.50
2019-05-16T10:45:27.376Z,708.75
2019-05-16T10:46:27.180Z,714.38
2019-05-16T10:47:31.009Z,691.88
2019-05-16T10:48:27.237Z,675.00
2019-05-16T10:49:36.942Z,770.62
2019-05-16T10:50:28.085Z,770.62
2019-05-16T10:51:27.146Z,748.12
2019-05-16T10:52:27.176Z,742.50
2019-05-16T10:53:57.107Z,725.62
2019-05-16T10:54:28.097Z,1440.00
2019-05-16T10:55:27.761Z,1501.88
2019-05-16T10:56:26.938Z,2199.38
2019-05-16T10:57:29.639Z,1631.25
2019-05-16T10:58:36.414Z,2542.50
2019-05-16T11:00:57.606Z,1822.50
2019-05-16T11:01:31.045Z,1265.62
2019-05-16T11:02:27.566Z,1164.38
2019-05-16T11:03:27.633Z,2008.12
2019-05-16T11:04:37.625Z,1586.25
2019-05-16T11:05:33.711Z,1220.62
2019-05-16T11:06:29.286Z,646.88
2019-05-16T11:07:29.610Z,933.75
2019-05-16T11:08:26.824Z,1215.00
2019-05-16T11:09:26.802Z,1074.38
2019-05-16T11:10:29.564Z,1254.38
2019-05-16T11:11:27.489Z,1271.25
2019-05-16T11:12:45.321Z,1136.25
2019-05-16T11:13:28.207Z,1524.38
2019-05-16T11:14:28.102Z,1777.50
2019-05-16T11:15:27.822Z,1203.75
2019-05-16T11:16:27.442Z,1423.12
2019-05-16T11:17:27.874Z,1822.50
2019-05-16T11:18:27.338Z,2137.50
2019-05-16T11:19:28.234Z,2165.62
2019-05-16T11:20:27.075Z,2041.88
2019-05-16T11:21:26.987Z,691.88
2019-05-16T11:22:29.535Z,1029.38
2019-05-16T11:23:30.941Z,1788.75
2019-05-16T11:24:29.012Z,2475.00
2019-05-16T11:25:31.815Z,1861.88
2019-05-16T11:26:30.247Z,1209.38
2019-05-16T11:27:26.617Z,1496.25
2019-05-16T11:28:26.651Z,2255.62
2019-05-16T11:29:26.596Z,2638.12
2019-05-16T11:30:28.089Z,2666.25
2019-05-16T11:31:26.881Z,2548.12
2019-05-16T11:32:27.068Z,2328.75
2019-05-16T11:33:28.190Z,2295.00
2019-05-16T11:34:26.783Z,2362.50
2019-05-16T11:35:27.292Z,2418.75
2019-05-16T11:36:26.878Z,2441.25
2019-05-16T11:37:27.907Z,2182.50
2019-05-16T11:38:26.513Z,2143.12
2019-05-16T11:39:26.493Z,2233.12
2019-05-16T11:40:26.485Z,2401.88
2019-05-16T11:41:27.534Z,2351.25
2019-05-16T11:42:27.986Z,2368.12
2019-05-16T11:43:27.835Z,2508.75
2019-05-16T11:44:28.721Z,2536.88
2019-05-16T11:45:27.183Z,2373.75
2019-05-16T11:46:28.213Z,2154.38
2019-05-16T11:47:27.223Z,2103.75
2019-05-16T11:48:29.516Z,2075.62
2019-05-16T11:49:27.544Z,1940.62
2019-05-16T11:50:28.028Z,2053.12
2019-05-16T11:51:27.182Z,2176.88
2019-05-16T11:52:26.378Z,2216.25
2019-05-16T11:53:28.180Z,2025.00
2019-05-16T11:54:26.669Z,1940.62
2019-05-16T11:55:33.785Z,2137.50
2019-05-16T11:56:27.334Z,2272.50
2019-05-16T11:57:26.325Z,2356.88
2019-05-16T11:58:26.698Z,2373.75
2019-05-16T11:59:26.315Z,2233.12
2019-05-16T12:00:30.115Z,2261.25
2019-05-16T12:01:27.620Z,815.62
2019-05-16T12:02:27.875Z,669.38
2019-05-16T12:03:28.154Z,1586.25
2019-05-16T12:04:28.069Z,1766.25
2019-05-16T12:05:27.103Z,2396.25
2019-05-16T12:06:26.798Z,2413.12
2019-05-16T12:07:33.405Z,2463.75
2019-05-16T12:08:27.214Z,2430.00
2019-05-16T12:09:33.365Z,2311.88
2019-05-16T12:10:27.203Z,1575.00
2019-05-16T12:11:27.495Z,691.88
2019-05-16T12:12:27.150Z,545.62
2019-05-16T12:13:31.779Z,562.50
2019-05-16T12:14:27.317Z,551.25
2019-05-16T12:15:27.337Z,562.50
2019-05-16T12:16:27.531Z,613.12
2019-05-16T12:17:28.021Z,624.38
2019-05-16T12:18:26.543Z,894.38
2019-05-16T12:19:34.731Z,1198.12
2019-05-16T12:20:27.492Z,1254.38
2019-05-16T12:21:27.481Z,1434.38
2019-05-16T12:22:26.827Z,1575.00
2019-05-16T12:23:27.609Z,1299.38
2019-05-16T12:24:33.144Z,1991.25
2019-05-16T12:25:27.432Z,1586.25
2019-05-16T12:26:28.144Z,826.88
2019-05-16T12:27:32.783Z,697.50
2019-05-16T12:28:27.214Z,551.25
2019-05-16T12:29:28.092Z,590.62
2019-05-16T12:30:25.998Z,511.88
2019-05-16T12:31:25.987Z,495.00
2019-05-16T12:32:27.651Z,500.62
2019-05-16T12:33:27.446Z,568.12
2019-05-16T12:34:25.967Z,523.12
2019-05-16T12:35:27.725Z,506.25
2019-05-16T12:36:26.796Z,466.88
2019-05-16T12:37:27.606Z,444.38
2019-05-16T12:38:27.639Z,410.62
2019-05-16T12:39:26.851Z,393.75
2019-05-16T12:40:26.847Z,376.88
2019-05-16T12:41:28.520Z,365.62
2019-05-16T12:42:27.086Z,371.25
2019-05-16T12:43:44.147Z,427.50
2019-05-16T12:44:27.028Z,376.88
2019-05-16T12:45:27.543Z,348.75
2019-05-16T12:46:27.178Z,365.62
2019-05-16T12:47:25.826Z,444.38
2019-05-16T12:48:25.833Z,427.50
2019-05-16T12:49:25.820Z,388.12
2019-05-16T12:50:28.734Z,354.38
2019-05-16T12:51:26.439Z,388.12
2019-05-16T12:52:27.070Z,421.88
2019-05-16T12:53:31.682Z,438.75
2019-05-16T12:54:27.566Z,450.00
2019-05-16T12:55:27.121Z,483.75
2019-05-16T12:56:27.218Z,517.50
2019-05-16T12:57:27.709Z,562.50
2019-05-16T12:58:37.534Z,523.12
2019-05-16T12:59:26.836Z,466.88
2019-05-16T13:00:27.622Z,433.12
2019-05-16T13:01:30.480Z,393.75
2019-05-16T13:02:27.329Z,371.25
2019-05-16T13:03:27.751Z,348.75
2019-05-16T13:04:27.924Z,331.88
2019-05-16T13:05:26.963Z,326.25
2019-05-16T13:06:27.767Z,326.25
2019-05-16T13:07:26.938Z,337.50
2019-05-16T13:08:26.806Z,348.75
2019-05-16T13:09:26.525Z,360.00
2019-05-16T13:10:26.981Z,371.25
2019-05-16T13:11:27.009Z,382.50
2019-05-16T13:12:27.070Z,382.50
2019-05-16T13:13:27.766Z,376.88
2019-05-16T13:14:27.950Z,371.25
2019-05-16T13:15:27.331Z,365.62
2019-05-16T13:16:28.075Z,354.38
2019-05-16T13:17:27.497Z,348.75
2019-05-16T13:18:27.561Z,348.75
2019-05-16T13:19:31.896Z,354.38
2019-05-16T13:20:26.795Z,354.38
2019-05-16T13:21:27.616Z,354.38
2019-05-16T13:22:27.573Z,348.75
2019-05-16T13:23:26.924Z,331.88
2019-05-16T13:24:27.834Z,326.25
2019-05-16T13:25:27.300Z,326.25
2019-05-16T13:26:25.413Z,348.75
2019-05-16T13:27:25.412Z,388.12
2019-05-16T13:28:25.387Z,376.88
2019-05-16T13:29:27.464Z,388.12
2019-05-16T13:30:26.852Z,405.00
2019-05-16T13:31:28.589Z,410.62
2019-05-16T13:32:27.070Z,421.88
2019-05-16T13:33:27.129Z,444.38
2019-05-16T13:34:28.077Z,483.75
2019-05-16T13:35:27.050Z,472.50
2019-05-16T13:36:27.196Z,472.50
2019-05-16T13:37:27.640Z,472.50
2019-05-16T13:38:27.902Z,472.50
2019-05-16T13:39:27.504Z,478.12
2019-05-16T13:40:27.480Z,489.38
2019-05-16T13:41:27.056Z,489.38
2019-05-16T13:42:27.200Z,500.62
2019-05-16T13:43:26.997Z,523.12
2019-05-16T13:44:27.482Z,540.00
2019-05-16T13:45:27.185Z,489.38
2019-05-16T13:46:26.544Z,540.00
2019-05-16T13:47:26.867Z,534.38
2019-05-16T13:48:26.769Z,528.75
2019-05-16T13:49:26.821Z,523.12
2019-05-16T13:50:27.308Z,601.88
2019-05-16T13:51:26.644Z,894.38
2019-05-16T13:52:28.090Z,1620.00
2019-05-16T13:53:27.154Z,1783.12
2019-05-16T13:54:26.951Z,1226.25
2019-05-16T13:55:27.146Z,601.88
2019-05-16T13:56:27.313Z,596.25
2019-05-16T13:57:28.036Z,607.50
2019-05-16T13:58:28.103Z,607.50
2019-05-16T13:59:27.839Z,495.00
2019-05-16T14:00:27.754Z,444.38
2019-05-16T14:01:27.627Z,528.75
2019-05-16T14:02:26.681Z,495.00
2019-05-16T14:03:27.516Z,523.12
2019-05-16T14:04:26.418Z,399.38
2019-05-16T14:05:26.768Z,388.12
2019-05-16T14:06:24.978Z,376.88
2019-05-16T14:07:24.970Z,360.00
2019-05-16T14:08:26.816Z,354.38
2019-05-16T14:09:26.834Z,326.25
2019-05-16T14:10:29.288Z,264.38
2019-05-16T14:11:24.924Z,258.75
2019-05-16T14:12:26.786Z,253.12
2019-05-16T14:13:24.914Z,270.00
2019-05-16T14:14:34.779Z,298.12
2019-05-16T14:15:27.034Z,303.75
2019-05-16T14:16:26.921Z,320.62
2019-05-16T14:17:27.323Z,354.38
2019-05-16T14:18:27.183Z,298.12
2019-05-16T14:19:27.322Z,258.75
2019-05-16T14:20:24.828Z,264.38
2019-05-16T14:21:24.842Z,298.12
2019-05-16T14:22:27.605Z,376.88
2019-05-16T14:23:28.091Z,410.62
2019-05-16T14:24:27.934Z,354.38
2019-05-16T14:25:24.790Z,421.88
2019-05-16T14:26:24.879Z,399.38
2019-05-16T14:27:26.883Z,427.50
2019-05-16T14:28:25.710Z,410.62
2019-05-16T14:29:24.729Z,376.88
2019-05-16T14:30:24.765Z,556.88
2019-05-16T14:31:24.730Z,365.62
2019-05-16T14:32:24.706Z,360.00
2019-05-16T14:33:24.687Z,388.12
2019-05-16T14:34:27.659Z,348.75
2019-05-16T14:35:26.676Z,320.62
2019-05-16T14:36:27.808Z,320.62
2019-05-16T14:37:26.779Z,365.62
2019-05-16T14:38:26.964Z,444.38
2019-05-16T14:39:28.078Z,303.75
2019-05-16T14:40:24.608Z,264.38
2019-05-16T14:41:24.638Z,241.88
2019-05-16T14:42:27.814Z,236.25
2019-05-16T14:43:27.024Z,241.88
2019-05-16T14:44:24.566Z,247.50
2019-05-16T14:45:26.377Z,253.12
2019-05-16T14:46:27.185Z,264.38
2019-05-16T14:47:26.975Z,264.38
2019-05-16T14:48:24.564Z,236.25
2019-05-16T14:49:24.513Z,225.00
2019-05-16T14:50:27.321Z,225.00
2019-05-16T14:51:27.283Z,225.00
2019-05-16T14:52:26.990Z,230.62
2019-05-16T14:53:28.197Z,241.88
2019-05-16T14:54:26.758Z,241.88
2019-05-16T14:55:27.262Z,253.12
2019-05-16T14:56:26.829Z,264.38
2019-05-16T14:57:24.444Z,275.62
2019-05-16T14:58:24.418Z,281.25
2019-05-16T14:59:26.848Z,264.38
2019-05-16T15:00:27.384Z,247.50
2019-05-16T15:01:26.606Z,230.62
2019-05-16T15:02:27.300Z,213.75
2019-05-16T15:03:27.128Z,196.88
2019-05-16T15:04:29.833Z,185.62
2019-05-16T15:05:25.406Z,174.38
2019-05-16T15:06:24.332Z,174.38
2019-05-16T15:07:24.319Z,174.38
2019-05-16T15:08:24.301Z,180.00
2019-05-16T15:09:24.289Z,174.38
2019-05-16T15:10:24.278Z,174.38
2019-05-16T15:11:24.311Z,174.38
2019-05-16T15:12:26.651Z,174.38
2019-05-16T15:13:24.245Z,180.00
2019-05-16T15:14:24.233Z,180.00
2019-05-16T15:15:27.793Z,180.00
2019-05-16T15:16:24.219Z,174.38
2019-05-16T15:17:24.198Z,168.75
2019-05-16T15:18:24.198Z,163.12
2019-05-16T15:19:24.179Z,163.12
2019-05-16T15:20:27.606Z,163.12
2019-05-16T15:21:24.164Z,157.50
2019-05-16T15:22:24.149Z,157.50
2019-05-16T15:23:24.141Z,151.88
2019-05-16T15:24:26.669Z,151.88
2019-05-16T15:25:26.433Z,157.50
2019-05-16T15:26:24.139Z,157.50
2019-05-16T15:27:26.242Z,163.12
2019-05-16T15:28:29.486Z,174.38
2019-05-16T15:29:27.005Z,174.38
2019-05-16T15:30:24.055Z,180.00
2019-05-16T15:31:24.044Z,174.38
2019-05-16T15:32:24.041Z,174.38
2019-05-16T15:33:24.020Z,168.75
2019-05-16T15:34:24.038Z,163.12
2019-05-16T15:35:24.001Z,163.12
2019-05-16T15:36:23.994Z,163.12
2019-05-16T15:37:23.997Z,157.50
2019-05-16T15:38:23.962Z,151.88
2019-05-16T15:39:23.962Z,146.25
2019-05-16T15:40:23.962Z,146.25
2019-05-16T15:41:23.933Z,151.88
2019-05-16T15:42:23.950Z,151.88
2019-05-16T15:43:23.908Z,151.88
2019-05-16T15:44:23.897Z,157.50
2019-05-16T15:45:35.673Z,157.50
2019-05-16T15:46:26.577Z,163.12
2019-05-16T15:47:23.883Z,168.75
2019-05-16T15:48:23.851Z,163.12
2019-05-16T15:49:26.408Z,151.88
2019-05-16T15:50:23.834Z,146.25
2019-05-16T15:51:23.819Z,140.62
2019-05-16T15:52:23.844Z,135.00
2019-05-16T15:53:23.813Z,135.00
2019-05-16T15:54:23.789Z,135.00
2019-05-16T15:55:23.777Z,129.38
2019-05-16T15:56:23.771Z,123.75
2019-05-16T15:57:23.769Z,123.75
2019-05-16T15:58:23.743Z,123.75
2019-05-16T15:59:23.735Z,118.12
2019-05-16T16:00:23.733Z,118.12
2019-05-16T16:01:23.711Z,112.50
2019-05-16T16:02:23.709Z,118.12
2019-05-16T16:03:23.713Z,123.75
2019-05-16T16:04:23.679Z,129.38
2019-05-16T16:05:23.670Z,135.00
2019-05-16T16:06:23.655Z,135.00
2019-05-16T16:07:23.677Z,129.38
2019-05-16T16:08:23.633Z,129.38
2019-05-16T16:09:23.620Z,129.38
2019-05-16T16:10:23.622Z,129.38
2019-05-16T16:11:23.602Z,129.38
2019-05-16T16:12:23.623Z,129.38
2019-05-16T16:13:23.593Z,135.00
2019-05-16T16:14:23.566Z,129.38
2019-05-16T16:15:23.555Z,129.38
2019-05-16T16:16:23.544Z,129.38
2019-05-16T16:17:23.545Z,129.38
2019-05-16T16:18:23.526Z,135.00
2019-05-16T16:19:23.536Z,135.00
2019-05-16T16:20:23.528Z,140.62
2019-05-16T16:21:23.492Z,135.00
2019-05-16T16:22:23.493Z,135.00
2019-05-16T16:23:23.482Z,129.38
2019-05-16T16:24:23.456Z,129.38
2019-05-16T16:25:23.462Z,129.38
2019-05-16T16:26:23.456Z,135.00
2019-05-16T16:27:23.434Z,140.62
2019-05-16T16:28:23.407Z,146.25
2019-05-16T16:29:23.399Z,140.62
2019-05-16T16:30:23.435Z,135.00
2019-05-16T16:31:23.376Z,129.38
2019-05-16T16:32:23.364Z,112.50
2019-05-16T16:33:29.052Z,106.88
2019-05-16T16:34:26.644Z,95.62
2019-05-16T16:35:23.330Z,90.00
2019-05-16T16:36:23.323Z,90.00
2019-05-16T16:37:23.307Z,84.38
2019-05-16T16:38:23.308Z,84.38
2019-05-16T16:39:23.292Z,84.38
2019-05-16T16:40:23.275Z,84.38
2019-05-16T16:41:23.268Z,84.38
2019-05-16T16:42:23.257Z,78.75
2019-05-16T16:43:24.305Z,73.12